sensor_id;sensor_type;location;lat;lon;timestamp;pressure;altitude;pressure_sealevel;temperature;humidity
11099;BME280;12223;42.650;23.364;2023-07-29T00:01:43;94594.16;;;21.80;61.27
11099;BME280;12223;42.650;23.364;2023-07-29T00:04:11;94595.06;;;20.95;64.72
11099;BME280;12223;42.650;23.364;2023-07-29T00:06:38;94597.53;;;20.92;66.17
11099;BME280;12223;42.650;23.364;2023-07-29T00:09:05;94603.44;;;21.50;62.97
11099;BME280;12223;42.650;23.364;2023-07-29T00:11:32;94601.44;;;21.60;62.11
11099;BME280;12223;42.650;23.364;2023-07-29T00:13:59;94598.66;;;21.65;61.81
11099;BME280;12223;42.650;23.364;2023-07-29T00:16:27;94604.19;;;21.55;61.90
11099;BME280;12223;42.650;23.364;2023-07-29T00:18:54;94601.72;;;21.59;61.91
11099;BME280;12223;42.650;23.364;2023-07-29T00:21:21;94600.38;;;21.75;61.33
11099;BME280;12223;42.650;23.364;2023-07-29T00:23:48;94591.31;;;21.71;61.10
11099;BME280;12223;42.650;23.364;2023-07-29T00:26:14;94597.25;;;21.87;60.47
11099;BME280;12223;42.650;23.364;2023-07-29T00:28:41;94589.69;;;21.89;60.06
11099;BME280;12223;42.650;23.364;2023-07-29T00:31:08;94596.22;;;21.83;60.62
11099;BME280;12223;42.650;23.364;2023-07-29T00:33:37;94597.56;;;21.66;60.98
11099;BME280;12223;42.650;23.364;2023-07-29T00:36:04;94596.13;;;21.55;61.48
11099;BME280;12223;42.650;23.364;2023-07-29T00:38:31;94596.50;;;20.40;68.86
11099;BME280;12223;42.650;23.364;2023-07-29T00:40:59;94593.19;;;20.19;71.51
11099;BME280;12223;42.650;23.364;2023-07-29T00:43:26;94593.25;;;20.14;72.07
11099;BME280;12223;42.650;23.364;2023-07-29T00:45:53;94592.53;;;19.75;75.27
11099;BME280;12223;42.650;23.364;2023-07-29T00:48:22;94583.47;;;19.99;75.19
11099;BME280;12223;42.650;23.364;2023-07-29T00:50:51;94590.69;;;20.04;75.20
11099;BME280;12223;42.650;23.364;2023-07-29T00:53:17;94597.34;;;20.06;75.52
11099;BME280;12223;42.650;23.364;2023-07-29T00:55:44;94551.38;;;20.18;73.52
11099;BME280;12223;42.650;23.364;2023-07-29T00:58:12;94586.34;;;20.08;76.03
11099;BME280;12223;42.650;23.364;2023-07-29T01:00:38;94578.78;;;20.15;73.97
11099;BME280;12223;42.650;23.364;2023-07-29T01:03:06;94585.00;;;20.05;75.21
11099;BME280;12223;42.650;23.364;2023-07-29T01:05:40;94584.56;;;20.51;72.34
11099;BME280;12223;42.650;23.364;2023-07-29T01:08:15;94578.63;;;20.01;74.16
11099;BME280;12223;42.650;23.364;2023-07-29T01:10:49;94581.00;;;19.74;79.46
11099;BME280;12223;42.650;23.364;2023-07-29T01:13:25;94575.31;;;19.81;77.08
11099;BME280;12223;42.650;23.364;2023-07-29T01:15:56;94581.31;;;19.73;77.21
11099;BME280;12223;42.650;23.364;2023-07-29T01:18:27;94578.69;;;19.62;78.40
11099;BME280;12223;42.650;23.364;2023-07-29T01:20:59;94579.03;;;20.14;76.01
11099;BME280;12223;42.650;23.364;2023-07-29T01:23:28;94581.16;;;20.45;73.15
11099;BME280;12223;42.650;23.364;2023-07-29T01:25:55;94580.81;;;20.52;72.04
11099;BME280;12223;42.650;23.364;2023-07-29T01:28:22;94584.41;;;20.66;71.52
11099;BME280;12223;42.650;23.364;2023-07-29T01:30:51;94588.59;;;20.54;71.79
11099;BME280;12223;42.650;23.364;2023-07-29T01:33:26;94585.09;;;20.77;69.91
11099;BME280;12223;42.650;23.364;2023-07-29T01:36:00;94584.41;;;20.66;70.33
11099;BME280;12223;42.650;23.364;2023-07-29T01:38:33;94583.84;;;20.45;71.61
11099;BME280;12223;42.650;23.364;2023-07-29T01:41:02;94584.19;;;20.39;72.70
11099;BME280;12223;42.650;23.364;2023-07-29T01:43:29;94581.34;;;20.25;74.15
11099;BME280;12223;42.650;23.364;2023-07-29T01:45:57;94579.34;;;19.44;79.36
11099;BME280;12223;42.650;23.364;2023-07-29T01:48:24;94579.59;;;19.82;79.20
11099;BME280;12223;42.650;23.364;2023-07-29T01:50:52;94584.97;;;19.43;81.83
11099;BME280;12223;42.650;23.364;2023-07-29T01:53:19;94582.53;;;19.51;80.85
11099;BME280;12223;42.650;23.364;2023-07-29T01:55:47;94584.47;;;19.36;83.24
11099;BME280;12223;42.650;23.364;2023-07-29T01:58:14;94580.00;;;19.26;83.37
11099;BME280;12223;42.650;23.364;2023-07-29T02:00:41;94588.50;;;19.38;84.65
11099;BME280;12223;42.650;23.364;2023-07-29T02:03:07;94578.22;;;19.11;87.97
11099;BME280;12223;42.650;23.364;2023-07-29T02:05:34;94585.84;;;19.33;84.61
11099;BME280;12223;42.650;23.364;2023-07-29T02:08:02;94582.50;;;19.56;83.45
11099;BME280;12223;42.650;23.364;2023-07-29T02:10:29;94583.69;;;19.74;80.91
11099;BME280;12223;42.650;23.364;2023-07-29T02:12:57;94588.28;;;19.68;81.81
11099;BME280;12223;42.650;23.364;2023-07-29T02:15:24;94587.78;;;19.22;86.19
11099;BME280;12223;42.650;23.364;2023-07-29T02:17:51;94588.88;;;19.21;85.14
11099;BME280;12223;42.650;23.364;2023-07-29T02:20:18;94591.13;;;19.43;83.42
11099;BME280;12223;42.650;23.364;2023-07-29T02:22:45;94595.78;;;19.72;80.47
11099;BME280;12223;42.650;23.364;2023-07-29T02:25:12;94590.47;;;19.95;79.88
11099;BME280;12223;42.650;23.364;2023-07-29T02:27:39;94595.63;;;19.58;82.16
11099;BME280;12223;42.650;23.364;2023-07-29T02:30:08;94594.88;;;18.98;86.70
11099;BME280;12223;42.650;23.364;2023-07-29T02:32:36;94591.59;;;19.55;84.08
11099;BME280;12223;42.650;23.364;2023-07-29T02:35:03;94595.41;;;19.00;86.87
11099;BME280;12223;42.650;23.364;2023-07-29T02:37:30;94586.34;;;18.96;88.14
11099;BME280;12223;42.650;23.364;2023-07-29T02:39:56;94593.69;;;18.65;87.73
11099;BME280;12223;42.650;23.364;2023-07-29T02:42:23;94592.72;;;19.44;80.97
11099;BME280;12223;42.650;23.364;2023-07-29T02:44:50;94589.56;;;19.37;80.71
11099;BME280;12223;42.650;23.364;2023-07-29T02:47:18;94587.47;;;19.34;81.79
11099;BME280;12223;42.650;23.364;2023-07-29T02:49:45;94589.09;;;18.76;85.57
11099;BME280;12223;42.650;23.364;2023-07-29T02:52:12;94580.81;;;19.26;82.50
11099;BME280;12223;42.650;23.364;2023-07-29T02:54:38;94584.38;;;19.56;78.84
11099;BME280;12223;42.650;23.364;2023-07-29T02:57:05;94587.31;;;19.59;78.11
11099;BME280;12223;42.650;23.364;2023-07-29T02:59:32;94582.09;;;20.02;75.06
11099;BME280;12223;42.650;23.364;2023-07-29T03:01:59;94584.69;;;20.12;73.47
11099;BME280;12223;42.650;23.364;2023-07-29T03:04:27;94592.47;;;19.85;74.22
11099;BME280;12223;42.650;23.364;2023-07-29T03:06:53;94599.63;;;20.18;72.68
11099;BME280;12223;42.650;23.364;2023-07-29T03:09:20;94598.66;;;20.38;71.02
11099;BME280;12223;42.650;23.364;2023-07-29T03:11:47;94606.47;;;20.05;72.85
11099;BME280;12223;42.650;23.364;2023-07-29T03:14:13;94604.84;;;20.38;70.36
11099;BME280;12223;42.650;23.364;2023-07-29T03:16:40;94612.94;;;20.57;68.99
11099;BME280;12223;42.650;23.364;2023-07-29T03:19:07;94601.59;;;20.65;67.95
11099;BME280;12223;42.650;23.364;2023-07-29T03:21:35;94607.75;;;20.66;67.61
11099;BME280;12223;42.650;23.364;2023-07-29T03:24:03;94615.69;;;20.76;67.43
11099;BME280;12223;42.650;23.364;2023-07-29T03:26:29;94611.53;;;19.78;71.45
11099;BME280;12223;42.650;23.364;2023-07-29T03:28:56;94615.13;;;18.55;83.24
11099;BME280;12223;42.650;23.364;2023-07-29T03:31:23;94609.72;;;18.65;85.78
11099;BME280;12223;42.650;23.364;2023-07-29T03:33:49;94612.88;;;18.82;85.30
11099;BME280;12223;42.650;23.364;2023-07-29T03:36:16;94616.47;;;19.66;80.41
11099;BME280;12223;42.650;23.364;2023-07-29T03:38:46;94616.59;;;20.42;75.81
11099;BME280;12223;42.650;23.364;2023-07-29T03:41:12;94619.78;;;21.16;70.76
11099;BME280;12223;42.650;23.364;2023-07-29T03:43:39;94616.03;;;21.54;67.66
11099;BME280;12223;42.650;23.364;2023-07-29T03:46:06;94616.84;;;21.55;65.65
11099;BME280;12223;42.650;23.364;2023-07-29T03:48:33;94615.31;;;22.19;63.03
11099;BME280;12223;42.650;23.364;2023-07-29T03:50:59;94616.00;;;22.98;59.13
11099;BME280;12223;42.650;23.364;2023-07-29T03:53:26;94616.13;;;23.42;56.55
11099;BME280;12223;42.650;23.364;2023-07-29T03:55:54;94608.19;;;24.40;52.75
11099;BME280;12223;42.650;23.364;2023-07-29T03:58:21;94604.84;;;25.22;49.88
11099;BME280;12223;42.650;23.364;2023-07-29T04:00:48;94614.00;;;25.60;47.15
11099;BME280;12223;42.650;23.364;2023-07-29T04:03:15;94611.59;;;25.93;46.36
11099;BME280;12223;42.650;23.364;2023-07-29T04:05:43;94614.75;;;26.38;44.56
11099;BME280;12223;42.650;23.364;2023-07-29T04:08:09;94612.34;;;27.80;42.16
11099;BME280;12223;42.650;23.364;2023-07-29T04:10:36;94610.88;;;28.69;38.70
11099;BME280;12223;42.650;23.364;2023-07-29T04:13:04;94618.25;;;30.46;35.12
11099;BME280;12223;42.650;23.364;2023-07-29T04:15:31;94621.81;;;31.56;32.74
11099;BME280;12223;42.650;23.364;2023-07-29T04:17:58;94620.31;;;31.75;31.77
11099;BME280;12223;42.650;23.364;2023-07-29T04:20:25;94621.38;;;32.05;30.86
11099;BME280;12223;42.650;23.364;2023-07-29T04:22:51;94620.53;;;31.66;30.99
11099;BME280;12223;42.650;23.364;2023-07-29T04:25:18;94629.03;;;32.77;29.43
11099;BME280;12223;42.650;23.364;2023-07-29T04:27:45;94619.81;;;33.07;28.55
11099;BME280;12223;42.650;23.364;2023-07-29T04:30:13;94620.00;;;32.95;29.19
11099;BME280;12223;42.650;23.364;2023-07-29T04:32:40;94615.88;;;33.54;28.06
11099;BME280;12223;42.650;23.364;2023-07-29T04:35:07;94614.19;;;33.99;27.67
11099;BME280;12223;42.650;23.364;2023-07-29T04:37:34;94620.97;;;34.08;27.40
11099;BME280;12223;42.650;23.364;2023-07-29T04:40:01;94626.09;;;34.40;27.21
11099;BME280;12223;42.650;23.364;2023-07-29T04:42:28;94628.69;;;34.99;26.18
11099;BME280;12223;42.650;23.364;2023-07-29T04:44:54;94632.00;;;36.21;25.18
11099;BME280;12223;42.650;23.364;2023-07-29T04:47:22;94631.53;;;37.56;23.41
11099;BME280;12223;42.650;23.364;2023-07-29T04:49:49;94626.97;;;38.61;22.19
11099;BME280;12223;42.650;23.364;2023-07-29T04:52:16;94625.84;;;38.48;22.43
11099;BME280;12223;42.650;23.364;2023-07-29T04:54:44;94639.03;;;40.70;20.46
11099;BME280;12223;42.650;23.364;2023-07-29T04:57:11;94638.81;;;41.88;18.98
11099;BME280;12223;42.650;23.364;2023-07-29T04:59:38;94647.84;;;42.59;18.60
11099;BME280;12223;42.650;23.364;2023-07-29T05:02:05;94645.41;;;42.61;18.05
11099;BME280;12223;42.650;23.364;2023-07-29T05:04:33;94647.75;;;43.70;16.81
11099;BME280;12223;42.650;23.364;2023-07-29T05:06:59;94650.25;;;44.42;16.53
11099;BME280;12223;42.650;23.364;2023-07-29T05:09:26;94650.03;;;41.31;18.16
11099;BME280;12223;42.650;23.364;2023-07-29T05:11:53;94650.56;;;42.42;17.86
11099;BME280;12223;42.650;23.364;2023-07-29T05:14:20;94649.69;;;42.85;17.51
11099;BME280;12223;42.650;23.364;2023-07-29T05:16:46;94658.38;;;42.67;17.09
11099;BME280;12223;42.650;23.364;2023-07-29T05:19:13;94652.25;;;42.13;17.11
11099;BME280;12223;42.650;23.364;2023-07-29T05:21:41;94657.03;;;42.36;17.02
11099;BME280;12223;42.650;23.364;2023-07-29T05:24:08;94657.22;;;41.55;17.60
11099;BME280;12223;42.650;23.364;2023-07-29T05:26:35;94648.47;;;41.30;17.91
11099;BME280;12223;42.650;23.364;2023-07-29T05:29:01;94657.88;;;41.63;17.97
11099;BME280;12223;42.650;23.364;2023-07-29T05:31:29;94664.81;;;40.94;18.32
11099;BME280;12223;42.650;23.364;2023-07-29T05:33:56;94663.72;;;40.88;18.06
11099;BME280;12223;42.650;23.364;2023-07-29T05:36:22;94663.41;;;41.86;17.58
11099;BME280;12223;42.650;23.364;2023-07-29T05:38:51;94665.16;;;39.43;19.58
11099;BME280;12223;42.650;23.364;2023-07-29T05:41:18;94669.03;;;40.00;19.20
11099;BME280;12223;42.650;23.364;2023-07-29T05:43:45;94670.31;;;38.68;20.67
11099;BME280;12223;42.650;23.364;2023-07-29T05:46:12;94660.66;;;37.46;21.41
11099;BME280;12223;42.650;23.364;2023-07-29T05:48:39;94663.72;;;36.08;22.59
11099;BME280;12223;42.650;23.364;2023-07-29T05:51:05;94661.88;;;34.84;24.03
11099;BME280;12223;42.650;23.364;2023-07-29T05:53:32;94662.09;;;33.33;26.61
11099;BME280;12223;42.650;23.364;2023-07-29T05:56:00;94662.50;;;32.31;27.73
11099;BME280;12223;42.650;23.364;2023-07-29T05:58:27;94658.81;;;31.70;28.82
11099;BME280;12223;42.650;23.364;2023-07-29T06:00:56;94655.31;;;31.06;30.64
11099;BME280;12223;42.650;23.364;2023-07-29T06:03:23;94661.47;;;31.03;30.39
11099;BME280;12223;42.650;23.364;2023-07-29T06:05:50;94667.03;;;31.23;30.08
11099;BME280;12223;42.650;23.364;2023-07-29T06:08:16;94663.22;;;30.96;30.89
11099;BME280;12223;42.650;23.364;2023-07-29T06:10:43;94656.06;;;30.75;31.41
11099;BME280;12223;42.650;23.364;2023-07-29T06:13:11;94666.25;;;30.23;31.95
11099;BME280;12223;42.650;23.364;2023-07-29T06:15:38;94653.16;;;30.01;32.57
11099;BME280;12223;42.650;23.364;2023-07-29T06:18:05;94650.47;;;29.15;33.66
11099;BME280;12223;42.650;23.364;2023-07-29T06:20:31;94647.53;;;29.69;33.16
11099;BME280;12223;42.650;23.364;2023-07-29T06:22:58;94656.69;;;30.29;32.75
11099;BME280;12223;42.650;23.364;2023-07-29T06:25:25;94649.22;;;30.26;32.72
11099;BME280;12223;42.650;23.364;2023-07-29T06:27:52;94645.91;;;30.32;32.70
11099;BME280;12223;42.650;23.364;2023-07-29T06:30:20;94650.56;;;31.03;32.01
11099;BME280;12223;42.650;23.364;2023-07-29T06:32:46;94647.06;;;31.34;31.22
11099;BME280;12223;42.650;23.364;2023-07-29T06:35:13;94639.00;;;30.79;32.57
11099;BME280;12223;42.650;23.364;2023-07-29T06:37:40;94637.59;;;30.85;32.39
11099;BME280;12223;42.650;23.364;2023-07-29T06:40:08;94632.66;;;30.74;32.03
11099;BME280;12223;42.650;23.364;2023-07-29T06:42:34;94633.56;;;30.79;31.81
11099;BME280;12223;42.650;23.364;2023-07-29T06:45:03;94634.94;;;30.17;32.95
11099;BME280;12223;42.650;23.364;2023-07-29T06:47:31;94625.44;;;30.38;32.67
11099;BME280;12223;42.650;23.364;2023-07-29T06:49:58;94627.63;;;30.33;32.69
11099;BME280;12223;42.650;23.364;2023-07-29T06:52:25;94619.00;;;29.51;34.21
11099;BME280;12223;42.650;23.364;2023-07-29T06:54:52;94630.34;;;30.05;33.28
11099;BME280;12223;42.650;23.364;2023-07-29T06:57:19;94621.47;;;30.36;33.40
11099;BME280;12223;42.650;23.364;2023-07-29T06:59:48;94630.38;;;30.76;32.50
11099;BME280;12223;42.650;23.364;2023-07-29T07:02:15;94618.53;;;30.85;32.40
11099;BME280;12223;42.650;23.364;2023-07-29T07:04:43;94624.34;;;30.55;32.30
11099;BME280;12223;42.650;23.364;2023-07-29T07:07:10;94631.22;;;30.37;33.30
11099;BME280;12223;42.650;23.364;2023-07-29T07:09:37;94627.41;;;29.86;33.98
11099;BME280;12223;42.650;23.364;2023-07-29T07:12:04;94623.06;;;29.08;35.39
11099;BME280;12223;42.650;23.364;2023-07-29T07:14:31;94629.84;;;29.02;35.46
11099;BME280;12223;42.650;23.364;2023-07-29T07:16:58;94626.47;;;29.42;34.69
11099;BME280;12223;42.650;23.364;2023-07-29T07:19:24;94621.72;;;29.39;35.24
11099;BME280;12223;42.650;23.364;2023-07-29T07:21:52;94625.31;;;28.94;36.57
11099;BME280;12223;42.650;23.364;2023-07-29T07:24:19;94623.16;;;29.00;36.39
11099;BME280;12223;42.650;23.364;2023-07-29T07:26:46;94618.06;;;28.20;38.42
11099;BME280;12223;42.650;23.364;2023-07-29T07:29:12;94627.91;;;28.91;37.07
11099;BME280;12223;42.650;23.364;2023-07-29T07:31:39;94615.72;;;29.21;36.10
11099;BME280;12223;42.650;23.364;2023-07-29T07:34:06;94624.69;;;26.72;40.91
11099;BME280;12223;42.650;23.364;2023-07-29T07:36:33;94621.69;;;26.65;42.92
11099;BME280;12223;42.650;23.364;2023-07-29T07:39:02;94618.69;;;27.84;39.72
11099;BME280;12223;42.650;23.364;2023-07-29T07:41:28;94617.00;;;25.93;43.32
11099;BME280;12223;42.650;23.364;2023-07-29T07:43:55;94614.72;;;27.61;39.27
11099;BME280;12223;42.650;23.364;2023-07-29T07:46:22;94619.69;;;26.19;41.52
11099;BME280;12223;42.650;23.364;2023-07-29T07:48:49;94621.19;;;27.18;40.58
11099;BME280;12223;42.650;23.364;2023-07-29T07:51:15;94616.19;;;27.79;38.72
11099;BME280;12223;42.650;23.364;2023-07-29T07:53:42;94615.50;;;28.24;37.62
11099;BME280;12223;42.650;23.364;2023-07-29T07:56:10;94613.84;;;28.31;38.06
11099;BME280;12223;42.650;23.364;2023-07-29T07:58:37;94616.47;;;29.22;35.22
11099;BME280;12223;42.650;23.364;2023-07-29T08:01:05;94613.88;;;29.62;34.21
11099;BME280;12223;42.650;23.364;2023-07-29T08:03:32;94619.69;;;29.88;33.81
11099;BME280;12223;42.650;23.364;2023-07-29T08:05:59;94624.81;;;29.89;34.44
11099;BME280;12223;42.650;23.364;2023-07-29T08:08:26;94614.78;;;30.06;34.08
11099;BME280;12223;42.650;23.364;2023-07-29T08:10:53;94613.88;;;30.14;34.04
11099;BME280;12223;42.650;23.364;2023-07-29T08:13:22;94617.22;;;27.66;37.60
11099;BME280;12223;42.650;23.364;2023-07-29T08:15:51;94621.66;;;28.90;35.92
11099;BME280;12223;42.650;23.364;2023-07-29T08:18:18;94619.22;;;29.58;35.04
11099;BME280;12223;42.650;23.364;2023-07-29T08:20:53;94616.81;;;28.38;37.28
11099;BME280;12223;42.650;23.364;2023-07-29T08:23:21;94619.75;;;28.46;37.02
11099;BME280;12223;42.650;23.364;2023-07-29T08:25:52;94627.59;;;29.16;36.03
11099;BME280;12223;42.650;23.364;2023-07-29T08:28:18;94622.84;;;29.01;35.97
11099;BME280;12223;42.650;23.364;2023-07-29T08:30:46;94619.53;;;29.69;34.22
11099;BME280;12223;42.650;23.364;2023-07-29T08:33:14;94620.16;;;29.90;33.85
11099;BME280;12223;42.650;23.364;2023-07-29T08:35:40;94617.88;;;29.52;34.34
11099;BME280;12223;42.650;23.364;2023-07-29T08:38:07;94615.97;;;29.80;33.82
11099;BME280;12223;42.650;23.364;2023-07-29T08:40:34;94616.38;;;29.18;34.58
11099;BME280;12223;42.650;23.364;2023-07-29T08:43:04;94614.44;;;29.18;34.10
11099;BME280;12223;42.650;23.364;2023-07-29T08:45:34;94613.97;;;29.65;33.50
11099;BME280;12223;42.650;23.364;2023-07-29T08:48:07;94611.19;;;29.37;33.30
11099;BME280;12223;42.650;23.364;2023-07-29T08:50:36;94609.50;;;29.97;31.53
11099;BME280;12223;42.650;23.364;2023-07-29T08:53:04;94600.22;;;27.78;35.66
11099;BME280;12223;42.650;23.364;2023-07-29T08:55:31;94585.56;;;29.26;33.87
11099;BME280;12223;42.650;23.364;2023-07-29T08:57:59;94592.53;;;30.04;31.53
11099;BME280;12223;42.650;23.364;2023-07-29T09:00:26;94596.06;;;30.60;31.55
11099;BME280;12223;42.650;23.364;2023-07-29T09:02:54;94593.53;;;30.39;31.09
11099;BME280;12223;42.650;23.364;2023-07-29T09:05:22;94595.81;;;30.65;31.05
11099;BME280;12223;42.650;23.364;2023-07-29T09:07:51;94595.63;;;30.30;29.32
11099;BME280;12223;42.650;23.364;2023-07-29T09:10:21;94590.97;;;30.58;29.52
11099;BME280;12223;42.650;23.364;2023-07-29T09:12:48;94589.84;;;31.73;28.00
11099;BME280;12223;42.650;23.364;2023-07-29T09:15:26;94582.84;;;32.29;27.62
11099;BME280;12223;42.650;23.364;2023-07-29T09:17:53;94580.09;;;32.29;26.44
11099;BME280;12223;42.650;23.364;2023-07-29T09:20:25;94574.97;;;31.89;27.42
11099;BME280;12223;42.650;23.364;2023-07-29T09:22:53;94573.34;;;32.04;26.90
11099;BME280;12223;42.650;23.364;2023-07-29T09:25:23;94565.94;;;32.66;26.45
11099;BME280;12223;42.650;23.364;2023-07-29T09:27:50;94568.38;;;32.29;27.04
11099;BME280;12223;42.650;23.364;2023-07-29T09:30:17;94562.91;;;32.29;27.60
11099;BME280;12223;42.650;23.364;2023-07-29T09:32:44;94569.50;;;32.09;27.15
11099;BME280;12223;42.650;23.364;2023-07-29T09:35:11;94558.78;;;31.81;26.73
11099;BME280;12223;42.650;23.364;2023-07-29T09:37:40;94557.78;;;31.35;27.13
11099;BME280;12223;42.650;23.364;2023-07-29T09:40:13;94573.09;;;30.92;29.38
11099;BME280;12223;42.650;23.364;2023-07-29T09:42:47;94563.63;;;31.52;27.51
11099;BME280;12223;42.650;23.364;2023-07-29T09:45:19;94559.66;;;31.15;27.75
11099;BME280;12223;42.650;23.364;2023-07-29T09:47:47;94552.34;;;31.03;27.66
11099;BME280;12223;42.650;23.364;2023-07-29T09:50:13;94560.38;;;30.21;28.79
11099;BME280;12223;42.650;23.364;2023-07-29T09:52:42;94549.44;;;31.12;27.29
11099;BME280;12223;42.650;23.364;2023-07-29T09:55:11;94555.53;;;30.30;28.52
11099;BME280;12223;42.650;23.364;2023-07-29T09:57:39;94555.28;;;30.20;30.20
11099;BME280;12223;42.650;23.364;2023-07-29T10:00:07;94547.25;;;30.55;28.91
11099;BME280;12223;42.650;23.364;2023-07-29T10:02:37;94542.50;;;29.68;29.57
11099;BME280;12223;42.650;23.364;2023-07-29T10:05:05;94541.63;;;29.64;30.03
11099;BME280;12223;42.650;23.364;2023-07-29T10:07:33;94541.94;;;30.46;30.21
11099;BME280;12223;42.650;23.364;2023-07-29T10:10:04;94547.97;;;30.24;29.21
11099;BME280;12223;42.650;23.364;2023-07-29T10:12:31;94543.81;;;30.89;28.96
11099;BME280;12223;42.650;23.364;2023-07-29T10:14:59;94543.25;;;30.21;30.03
11099;BME280;12223;42.650;23.364;2023-07-29T10:17:26;94537.22;;;30.90;27.86
11099;BME280;12223;42.650;23.364;2023-07-29T10:19:55;94535.31;;;30.16;29.91
11099;BME280;12223;42.650;23.364;2023-07-29T10:22:25;94518.97;;;30.59;28.61
11099;BME280;12223;42.650;23.364;2023-07-29T10:24:54;94524.06;;;30.17;29.04
11099;BME280;12223;42.650;23.364;2023-07-29T10:27:25;94515.28;;;30.24;28.39
11099;BME280;12223;42.650;23.364;2023-07-29T10:29:55;94510.41;;;31.08;28.15
11099;BME280;12223;42.650;23.364;2023-07-29T10:32:23;94502.84;;;30.54;28.47
11099;BME280;12223;42.650;23.364;2023-07-29T10:34:51;94505.72;;;30.93;28.00
11099;BME280;12223;42.650;23.364;2023-07-29T10:37:18;94506.72;;;30.69;27.73
11099;BME280;12223;42.650;23.364;2023-07-29T10:39:53;94496.94;;;31.34;26.81
11099;BME280;12223;42.650;23.364;2023-07-29T10:42:20;94500.63;;;31.42;26.28
11099;BME280;12223;42.650;23.364;2023-07-29T10:44:52;94496.56;;;31.01;26.99
11099;BME280;12223;42.650;23.364;2023-07-29T10:47:21;94495.94;;;30.13;28.04
11099;BME280;12223;42.650;23.364;2023-07-29T10:49:50;94483.91;;;31.82;26.07
11099;BME280;12223;42.650;23.364;2023-07-29T10:52:28;94481.75;;;32.33;25.72
11099;BME280;12223;42.650;23.364;2023-07-29T10:54:56;94483.16;;;32.92;24.83
11099;BME280;12223;42.650;23.364;2023-07-29T10:57:30;94477.63;;;33.41;24.65
11099;BME280;12223;42.650;23.364;2023-07-29T10:59:59;94478.88;;;33.47;24.59
11099;BME280;12223;42.650;23.364;2023-07-29T11:02:30;94468.97;;;31.76;26.76
11099;BME280;12223;42.650;23.364;2023-07-29T11:04:58;94478.72;;;32.15;27.55
11099;BME280;12223;42.650;23.364;2023-07-29T11:07:26;94461.00;;;32.28;25.75
11099;BME280;12223;42.650;23.364;2023-07-29T11:10:04;94457.84;;;32.07;25.41
11099;BME280;12223;42.650;23.364;2023-07-29T11:12:38;94458.25;;;30.78;26.66
11099;BME280;12223;42.650;23.364;2023-07-29T11:15:14;94461.34;;;30.61;26.87
11099;BME280;12223;42.650;23.364;2023-07-29T11:17:42;94459.88;;;31.14;26.62
11099;BME280;12223;42.650;23.364;2023-07-29T11:20:10;94460.59;;;31.11;26.18
11099;BME280;12223;42.650;23.364;2023-07-29T11:22:37;94463.66;;;31.64;25.97
11099;BME280;12223;42.650;23.364;2023-07-29T11:25:06;94460.88;;;32.02;25.48
11099;BME280;12223;42.650;23.364;2023-07-29T11:27:33;94458.34;;;31.71;26.48
11099;BME280;12223;42.650;23.364;2023-07-29T11:30:01;94457.78;;;32.46;25.00
11099;BME280;12223;42.650;23.364;2023-07-29T11:32:32;94461.34;;;31.85;24.94
11099;BME280;12223;42.650;23.364;2023-07-29T11:35:01;94447.97;;;31.99;24.69
11099;BME280;12223;42.650;23.364;2023-07-29T11:37:29;94453.03;;;32.20;24.86
11099;BME280;12223;42.650;23.364;2023-07-29T11:39:56;94455.75;;;32.65;23.99
11099;BME280;12223;42.650;23.364;2023-07-29T11:42:24;94448.94;;;33.61;23.50
11099;BME280;12223;42.650;23.364;2023-07-29T11:44:50;94454.53;;;34.05;22.71
11099;BME280;12223;42.650;23.364;2023-07-29T11:47:17;94448.09;;;33.90;22.82
11099;BME280;12223;42.650;23.364;2023-07-29T11:49:45;94434.44;;;33.61;23.26
11099;BME280;12223;42.650;23.364;2023-07-29T11:52:12;94437.91;;;34.24;22.67
11099;BME280;12223;42.650;23.364;2023-07-29T11:54:39;94439.13;;;34.27;22.12
11099;BME280;12223;42.650;23.364;2023-07-29T11:57:06;94440.94;;;34.56;21.78
11099;BME280;12223;42.650;23.364;2023-07-29T11:59:33;94434.88;;;34.33;22.31
11099;BME280;12223;42.650;23.364;2023-07-29T12:02:01;94435.34;;;34.05;23.37
11099;BME280;12223;42.650;23.364;2023-07-29T12:04:28;94438.22;;;33.49;24.12
11099;BME280;12223;42.650;23.364;2023-07-29T12:06:57;94424.72;;;33.33;24.35
11099;BME280;12223;42.650;23.364;2023-07-29T12:09:25;94433.06;;;32.16;25.10
11099;BME280;12223;42.650;23.364;2023-07-29T12:11:53;94420.19;;;32.65;24.68
11099;BME280;12223;42.650;23.364;2023-07-29T12:14:20;94410.56;;;32.49;24.04
11099;BME280;12223;42.650;23.364;2023-07-29T12:16:48;94416.59;;;33.40;22.96
11099;BME280;12223;42.650;23.364;2023-07-29T12:19:17;94403.53;;;31.22;25.99
11099;BME280;12223;42.650;23.364;2023-07-29T12:21:44;94409.47;;;32.08;24.89
11099;BME280;12223;42.650;23.364;2023-07-29T12:24:13;94409.78;;;33.01;23.77
11099;BME280;12223;42.650;23.364;2023-07-29T12:26:40;94408.41;;;33.74;23.33
11099;BME280;12223;42.650;23.364;2023-07-29T12:29:13;94395.00;;;32.07;25.28
11099;BME280;12223;42.650;23.364;2023-07-29T12:31:41;94407.56;;;32.31;24.75
11099;BME280;12223;42.650;23.364;2023-07-29T12:34:08;94403.38;;;32.14;24.44
11099;BME280;12223;42.650;23.364;2023-07-29T12:36:43;94400.13;;;32.54;23.82
11099;BME280;12223;42.650;23.364;2023-07-29T12:39:19;94401.56;;;33.57;22.70
11099;BME280;12223;42.650;23.364;2023-07-29T12:41:46;94410.94;;;32.47;23.22
11099;BME280;12223;42.650;23.364;2023-07-29T12:44:13;94410.00;;;33.75;22.51
11099;BME280;12223;42.650;23.364;2023-07-29T12:46:40;94400.81;;;33.00;23.38
11099;BME280;12223;42.650;23.364;2023-07-29T12:49:07;94401.81;;;33.78;22.57
11099;BME280;12223;42.650;23.364;2023-07-29T12:51:34;94388.75;;;34.46;21.47
11099;BME280;12223;42.650;23.364;2023-07-29T12:54:01;94400.50;;;34.46;22.24